sensor_id;sensor_type;location;lat;lon;timestamp;P1;durP1;ratioP1;P2;durP2;ratioP2
18929;SDS011;43305;52.186;5.598;2024-03-02T00:00:48;3.33;;;1.13;;
18929;SDS011;43305;52.186;5.598;2024-03-02T00:03:17;3.45;;;1.05;;
18929;SDS011;43305;52.186;5.598;2024-03-02T00:05:47;2.63;;;1.08;;
18929;SDS011;43305;52.186;5.598;2024-03-02T00:08:16;2.35;;;1.02;;
18929;SDS011;43305;52.186;5.598;2024-03-02T00:10:50;3.20;;;0.88;;
18929;SDS011;43305;52.186;5.598;2024-03-02T00:13:18;2.90;;;1.02;;
18929;SDS011;43305;52.186;5.598;2024-03-02T00:15:48;4.43;;;1.15;;
18929;SDS011;43305;52.186;5.598;2024-03-02T00:18:20;2.10;;;0.90;;
18929;SDS011;43305;52.186;5.598;2024-03-02T00:20:52;2.45;;;0.88;;
18929;SDS011;43305;52.186;5.598;2024-03-02T00:23:20;2.40;;;0.98;;
18929;SDS011;43305;52.186;5.598;2024-03-02T00:25:48;1.83;;;0.88;;
18929;SDS011;43305;52.186;5.598;2024-03-02T00:28:19;2.05;;;0.90;;
18929;SDS011;43305;52.186;5.598;2024-03-02T00:30:57;3.58;;;0.90;;
18929;SDS011;43305;52.186;5.598;2024-03-02T00:33:35;3.42;;;1.02;;
18929;SDS011;43305;52.186;5.598;2024-03-02T00:36:03;2.28;;;0.77;;
18929;SDS011;43305;52.186;5.598;2024-03-02T00:38:31;3.25;;;0.90;;
18929;SDS011;43305;52.186;5.598;2024-03-02T00:41:00;3.58;;;1.02;;
18929;SDS011;43305;52.186;5.598;2024-03-02T00:43:41;3.08;;;1.00;;
18929;SDS011;43305;52.186;5.598;2024-03-02T00:46:10;2.60;;;0.90;;
18929;SDS011;43305;52.186;5.598;2024-03-02T00:48:39;3.75;;;0.90;;
18929;SDS011;43305;52.186;5.598;2024-03-02T00:51:14;2.97;;;1.23;;
18929;SDS011;43305;52.186;5.598;2024-03-02T00:53:41;1.83;;;0.90;;
18929;SDS011;43305;52.186;5.598;2024-03-02T00:56:08;2.83;;;1.00;;
18929;SDS011;43305;52.186;5.598;2024-03-02T00:58:36;1.45;;;0.80;;
18929;SDS011;43305;52.186;5.598;2024-03-02T01:01:03;3.58;;;1.10;;
18929;SDS011;43305;52.186;5.598;2024-03-02T01:03:33;1.88;;;0.80;;
18929;SDS011;43305;52.186;5.598;2024-03-02T01:06:02;2.38;;;0.75;;
18929;SDS011;43305;52.186;5.598;2024-03-02T01:08:29;2.53;;;0.90;;
18929;SDS011;43305;52.186;5.598;2024-03-02T01:10:56;3.95;;;0.90;;
18929;SDS011;43305;52.186;5.598;2024-03-02T01:13:23;2.97;;;0.90;;
18929;SDS011;43305;52.186;5.598;2024-03-02T01:15:50;2.05;;;0.50;;
18929;SDS011;43305;52.186;5.598;2024-03-02T01:18:17;4.47;;;1.17;;
18929;SDS011;43305;52.186;5.598;2024-03-02T01:20:43;1.50;;;0.90;;
18929;SDS011;43305;52.186;5.598;2024-03-02T01:23:11;1.25;;;0.47;;
18929;SDS011;43305;52.186;5.598;2024-03-02T01:25:38;1.92;;;0.40;;
18929;SDS011;43305;52.186;5.598;2024-03-02T01:28:05;2.13;;;0.65;;
18929;SDS011;43305;52.186;5.598;2024-03-02T01:30:32;1.65;;;0.40;;
18929;SDS011;43305;52.186;5.598;2024-03-02T01:33:00;1.08;;;0.30;;
18929;SDS011;43305;52.186;5.598;2024-03-02T01:35:27;0.95;;;0.30;;
18929;SDS011;43305;52.186;5.598;2024-03-02T01:37:55;1.30;;;0.40;;
18929;SDS011;43305;52.186;5.598;2024-03-02T01:40:23;3.08;;;0.60;;
18929;SDS011;43305;52.186;5.598;2024-03-02T01:42:51;1.35;;;0.45;;
18929;SDS011;43305;52.186;5.598;2024-03-02T01:45:19;0.60;;;0.32;;
18929;SDS011;43305;52.186;5.598;2024-03-02T01:47:46;1.15;;;0.25;;
18929;SDS011;43305;52.186;5.598;2024-03-02T01:50:13;1.30;;;0.45;;
18929;SDS011;43305;52.186;5.598;2024-03-02T01:52:40;0.70;;;0.40;;
18929;SDS011;43305;52.186;5.598;2024-03-02T01:55:09;0.60;;;0.30;;
18929;SDS011;43305;52.186;5.598;2024-03-02T01:57:39;0.70;;;0.40;;
18929;SDS011;43305;52.186;5.598;2024-03-02T02:00:07;0.75;;;0.30;;
18929;SDS011;43305;52.186;5.598;2024-03-02T02:02:35;2.05;;;0.40;;
18929;SDS011;43305;52.186;5.598;2024-03-02T02:05:01;0.38;;;0.30;;
18929;SDS011;43305;52.186;5.598;2024-03-02T02:07:28;0.68;;;0.32;;
18929;SDS011;43305;52.186;5.598;2024-03-02T02:09:55;0.47;;;0.30;;
18929;SDS011;43305;52.186;5.598;2024-03-02T02:12:22;0.73;;;0.30;;
18929;SDS011;43305;52.186;5.598;2024-03-02T02:14:50;1.25;;;0.43;;
18929;SDS011;43305;52.186;5.598;2024-03-02T02:17:17;1.88;;;0.40;;
18929;SDS011;43305;52.186;5.598;2024-03-02T02:19:44;0.52;;;0.22;;
18929;SDS011;43305;52.186;5.598;2024-03-02T02:22:12;0.52;;;0.25;;
18929;SDS011;43305;52.186;5.598;2024-03-02T02:24:39;0.75;;;0.30;;
18929;SDS011;43305;52.186;5.598;2024-03-02T02:27:07;1.13;;;0.30;;
18929;SDS011;43305;52.186;5.598;2024-03-02T02:29:35;1.70;;;0.47;;
18929;SDS011;43305;52.186;5.598;2024-03-02T02:32:02;1.00;;;0.40;;
18929;SDS011;43305;52.186;5.598;2024-03-02T02:34:29;1.23;;;0.30;;
18929;SDS011;43305;52.186;5.598;2024-03-02T02:36:55;1.30;;;0.50;;
18929;SDS011;43305;52.186;5.598;2024-03-02T02:39:24;0.47;;;0.30;;
18929;SDS011;43305;52.186;5.598;2024-03-02T02:41:50;1.10;;;0.40;;
18929;SDS011;43305;52.186;5.598;2024-03-02T02:44:17;0.60;;;0.30;;
18929;SDS011;43305;52.186;5.598;2024-03-02T02:46:44;1.10;;;0.40;;
18929;SDS011;43305;52.186;5.598;2024-03-02T02:49:11;0.80;;;0.30;;
18929;SDS011;43305;52.186;5.598;2024-03-02T02:51:38;0.60;;;0.40;;
18929;SDS011;43305;52.186;5.598;2024-03-02T02:54:05;1.63;;;0.30;;
18929;SDS011;43305;52.186;5.598;2024-03-02T02:56:33;1.00;;;0.32;;
18929;SDS011;43305;52.186;5.598;2024-03-02T02:59:00;0.80;;;0.40;;
18929;SDS011;43305;52.186;5.598;2024-03-02T03:01:26;0.50;;;0.30;;
18929;SDS011;43305;52.186;5.598;2024-03-02T03:03:54;1.38;;;0.60;;
18929;SDS011;43305;52.186;5.598;2024-03-02T03:06:21;0.80;;;0.40;;
18929;SDS011;43305;52.186;5.598;2024-03-02T03:08:50;1.10;;;0.40;;
18929;SDS011;43305;52.186;5.598;2024-03-02T03:11:17;0.32;;;0.25;;
18929;SDS011;43305;52.186;5.598;2024-03-02T03:13:45;0.47;;;0.40;;
18929;SDS011;43305;52.186;5.598;2024-03-02T03:16:13;0.60;;;0.30;;
18929;SDS011;43305;52.186;5.598;2024-03-02T03:18:40;0.88;;;0.38;;
18929;SDS011;43305;52.186;5.598;2024-03-02T03:21:07;1.27;;;0.30;;
18929;SDS011;43305;52.186;5.598;2024-03-02T03:23:33;0.90;;;0.20;;
18929;SDS011;43305;52.186;5.598;2024-03-02T03:26:00;1.77;;;0.40;;
18929;SDS011;43305;52.186;5.598;2024-03-02T03:28:31;0.68;;;0.40;;
18929;SDS011;43305;52.186;5.598;2024-03-02T03:31:00;1.92;;;0.40;;
18929;SDS011;43305;52.186;5.598;2024-03-02T03:33:30;0.60;;;0.40;;
18929;SDS011;43305;52.186;5.598;2024-03-02T03:35:57;1.58;;;0.40;;
18929;SDS011;43305;52.186;5.598;2024-03-02T03:38:26;1.25;;;0.45;;
18929;SDS011;43305;52.186;5.598;2024-03-02T03:40:53;1.10;;;0.47;;
18929;SDS011;43305;52.186;5.598;2024-03-02T03:43:20;1.05;;;0.40;;
18929;SDS011;43305;52.186;5.598;2024-03-02T03:45:47;0.98;;;0.50;;
18929;SDS011;43305;52.186;5.598;2024-03-02T03:48:15;0.63;;;0.35;;
18929;SDS011;43305;52.186;5.598;2024-03-02T03:50:42;0.90;;;0.50;;
18929;SDS011;43305;52.186;5.598;2024-03-02T03:53:08;1.25;;;0.68;;
18929;SDS011;43305;52.186;5.598;2024-03-02T03:55:35;1.52;;;0.70;;
18929;SDS011;43305;52.186;5.598;2024-03-02T03:58:02;1.15;;;0.60;;
18929;SDS011;43305;52.186;5.598;2024-03-02T04:00:29;0.90;;;0.45;;
18929;SDS011;43305;52.186;5.598;2024-03-02T04:02:56;1.02;;;0.40;;
18929;SDS011;43305;52.186;5.598;2024-03-02T04:05:26;0.90;;;0.45;;
18929;SDS011;43305;52.186;5.598;2024-03-02T04:07:56;0.50;;;0.32;;
18929;SDS011;43305;52.186;5.598;2024-03-02T04:10:23;1.50;;;0.50;;
18929;SDS011;43305;52.186;5.598;2024-03-02T04:12:50;2.03;;;0.40;;
18929;SDS011;43305;52.186;5.598;2024-03-02T04:15:17;3.25;;;0.55;;
18929;SDS011;43305;52.186;5.598;2024-03-02T04:17:44;1.95;;;0.50;;
18929;SDS011;43305;52.186;5.598;2024-03-02T04:20:11;2.22;;;0.50;;
18929;SDS011;43305;52.186;5.598;2024-03-02T04:22:40;2.63;;;0.40;;
18929;SDS011;43305;52.186;5.598;2024-03-02T04:25:07;3.55;;;0.70;;
18929;SDS011;43305;52.186;5.598;2024-03-02T04:27:34;0.68;;;0.32;;
18929;SDS011;43305;52.186;5.598;2024-03-02T04:30:01;0.55;;;0.28;;
18929;SDS011;43305;52.186;5.598;2024-03-02T04:32:30;1.10;;;0.50;;
18929;SDS011;43305;52.186;5.598;2024-03-02T04:34:57;1.00;;;0.50;;
18929;SDS011;43305;52.186;5.598;2024-03-02T04:37:26;1.45;;;0.38;;
18929;SDS011;43305;52.186;5.598;2024-03-02T04:39:55;1.75;;;0.45;;
18929;SDS011;43305;52.186;5.598;2024-03-02T04:42:22;1.30;;;0.38;;
18929;SDS011;43305;52.186;5.598;2024-03-02T04:44:49;1.05;;;0.32;;
18929;SDS011;43305;52.186;5.598;2024-03-02T04:47:16;1.00;;;0.30;;
18929;SDS011;43305;52.186;5.598;2024-03-02T04:49:43;1.58;;;0.30;;
18929;SDS011;43305;52.186;5.598;2024-03-02T04:52:10;1.15;;;0.38;;
18929;SDS011;43305;52.186;5.598;2024-03-02T04:54:37;2.15;;;0.40;;
18929;SDS011;43305;52.186;5.598;2024-03-02T04:57:33;0.88;;;0.32;;
18929;SDS011;43305;52.186;5.598;2024-03-02T04:59:59;1.55;;;0.40;;
18929;SDS011;43305;52.186;5.598;2024-03-02T05:02:26;1.17;;;0.47;;
18929;SDS011;43305;52.186;5.598;2024-03-02T05:04:53;1.08;;;0.30;;
18929;SDS011;43305;52.186;5.598;2024-03-02T05:07:20;1.75;;;0.50;;
18929;SDS011;43305;52.186;5.598;2024-03-02T05:09:47;0.93;;;0.40;;
18929;SDS011;43305;52.186;5.598;2024-03-02T05:12:13;0.63;;;0.30;;
18929;SDS011;43305;52.186;5.598;2024-03-02T05:15:07;2.78;;;0.40;;
18929;SDS011;43305;52.186;5.598;2024-03-02T05:17:35;1.23;;;0.40;;
18929;SDS011;43305;52.186;5.598;2024-03-02T05:20:02;5.00;;;0.43;;
18929;SDS011;43305;52.186;5.598;2024-03-02T05:22:30;1.00;;;0.38;;
18929;SDS011;43305;52.186;5.598;2024-03-02T05:24:56;1.48;;;0.40;;
18929;SDS011;43305;52.186;5.598;2024-03-02T05:27:24;1.38;;;0.35;;
18929;SDS011;43305;52.186;5.598;2024-03-02T05:29:51;0.88;;;0.30;;
18929;SDS011;43305;52.186;5.598;2024-03-02T05:32:19;1.55;;;0.45;;
18929;SDS011;43305;52.186;5.598;2024-03-02T05:34:46;2.63;;;0.50;;
18929;SDS011;43305;52.186;5.598;2024-03-02T05:37:13;2.20;;;0.47;;
18929;SDS011;43305;52.186;5.598;2024-03-02T05:39:40;1.95;;;0.30;;
18929;SDS011;43305;52.186;5.598;2024-03-02T05:42:08;1.52;;;0.30;;
18929;SDS011;43305;52.186;5.598;2024-03-02T05:44:35;2.38;;;0.50;;
18929;SDS011;43305;52.186;5.598;2024-03-02T05:47:02;2.55;;;0.60;;
18929;SDS011;43305;52.186;5.598;2024-03-02T05:49:33;2.00;;;0.40;;
18929;SDS011;43305;52.186;5.598;2024-03-02T05:52:00;1.80;;;0.40;;
18929;SDS011;43305;52.186;5.598;2024-03-02T05:54:28;1.73;;;0.55;;
18929;SDS011;43305;52.186;5.598;2024-03-02T05:56:55;2.40;;;0.50;;
18929;SDS011;43305;52.186;5.598;2024-03-02T05:59:22;3.13;;;0.50;;
18929;SDS011;43305;52.186;5.598;2024-03-02T06:01:48;1.52;;;0.40;;
18929;SDS011;43305;52.186;5.598;2024-03-02T06:04:18;4.47;;;0.52;;
18929;SDS011;43305;52.186;5.598;2024-03-02T06:06:46;2.15;;;0.70;;
18929;SDS011;43305;52.186;5.598;2024-03-02T06:09:14;1.85;;;0.40;;
18929;SDS011;43305;52.186;5.598;2024-03-02T06:11:41;2.80;;;0.40;;
18929;SDS011;43305;52.186;5.598;2024-03-02T06:14:08;4.35;;;0.60;;
18929;SDS011;43305;52.186;5.598;2024-03-02T06:16:35;2.85;;;0.50;;
18929;SDS011;43305;52.186;5.598;2024-03-02T06:19:02;3.28;;;0.55;;
18929;SDS011;43305;52.186;5.598;2024-03-02T06:21:32;1.75;;;0.50;;
18929;SDS011;43305;52.186;5.598;2024-03-02T06:24:03;1.17;;;0.50;;
18929;SDS011;43305;52.186;5.598;2024-03-02T06:26:30;1.63;;;0.43;;
18929;SDS011;43305;52.186;5.598;2024-03-02T06:28:57;3.50;;;0.60;;
18929;SDS011;43305;52.186;5.598;2024-03-02T06:31:27;3.60;;;0.60;;
18929;SDS011;43305;52.186;5.598;2024-03-02T06:33:56;4.25;;;1.00;;
18929;SDS011;43305;52.186;5.598;2024-03-02T06:36:23;3.90;;;0.65;;
18929;SDS011;43305;52.186;5.598;2024-03-02T06:38:50;2.08;;;0.90;;
18929;SDS011;43305;52.186;5.598;2024-03-02T06:41:19;2.58;;;0.77;;
18929;SDS011;43305;52.186;5.598;2024-03-02T06:43:45;1.48;;;0.60;;
18929;SDS011;43305;52.186;5.598;2024-03-02T06:46:12;2.55;;;0.77;;
18929;SDS011;43305;52.186;5.598;2024-03-02T06:48:40;5.65;;;0.57;;
18929;SDS011;43305;52.186;5.598;2024-03-02T06:51:07;2.20;;;0.60;;
18929;SDS011;43305;52.186;5.598;2024-03-02T06:53:34;3.00;;;0.50;;
18929;SDS011;43305;52.186;5.598;2024-03-02T06:56:00;1.25;;;0.57;;
18929;SDS011;43305;52.186;5.598;2024-03-02T06:58:31;2.70;;;0.45;;
18929;SDS011;43305;52.186;5.598;2024-03-02T07:00:58;1.70;;;0.50;;
18929;SDS011;43305;52.186;5.598;2024-03-02T07:03:28;2.58;;;0.70;;
18929;SDS011;43305;52.186;5.598;2024-03-02T07:05:58;1.90;;;0.40;;
18929;SDS011;43305;52.186;5.598;2024-03-02T07:08:28;3.42;;;0.52;;
18929;SDS011;43305;52.186;5.598;2024-03-02T07:11:02;1.63;;;0.50;;
18929;SDS011;43305;52.186;5.598;2024-03-02T07:13:36;1.85;;;0.63;;
18929;SDS011;43305;52.186;5.598;2024-03-02T07:16:03;3.33;;;0.68;;
18929;SDS011;43305;52.186;5.598;2024-03-02T07:18:47;3.78;;;0.63;;
18929;SDS011;43305;52.186;5.598;2024-03-02T07:21:16;1.70;;;0.60;;
18929;SDS011;43305;52.186;5.598;2024-03-02T07:23:43;3.40;;;0.82;;
18929;SDS011;43305;52.186;5.598;2024-03-02T07:26:10;2.47;;;0.60;;
18929;SDS011;43305;52.186;5.598;2024-03-02T07:28:38;3.08;;;0.80;;
18929;SDS011;43305;52.186;5.598;2024-03-02T07:31:05;3.95;;;1.10;;
18929;SDS011;43305;52.186;5.598;2024-03-02T07:33:35;2.35;;;0.73;;
18929;SDS011;43305;52.186;5.598;2024-03-02T07:36:02;3.42;;;1.10;;
18929;SDS011;43305;52.186;5.598;2024-03-02T07:38:32;1.60;;;0.70;;
18929;SDS011;43305;52.186;5.598;2024-03-02T07:41:00;2.50;;;0.85;;
18929;SDS011;43305;52.186;5.598;2024-03-02T07:43:27;1.63;;;0.90;;
18929;SDS011;43305;52.186;5.598;2024-03-02T07:46:02;2.65;;;0.80;;
18929;SDS011;43305;52.186;5.598;2024-03-02T07:48:30;3.72;;;0.88;;
18929;SDS011;43305;52.186;5.598;2024-03-02T07:50:57;3.03;;;0.80;;
18929;SDS011;43305;52.186;5.598;2024-03-02T07:53:27;4.85;;;0.80;;
18929;SDS011;43305;52.186;5.598;2024-03-02T07:55:56;5.15;;;1.00;;
18929;SDS011;43305;52.186;5.598;2024-03-02T07:58:27;3.63;;;0.70;;
18929;SDS011;43305;52.186;5.598;2024-03-02T08:01:03;1.17;;;0.65;;
18929;SDS011;43305;52.186;5.598;2024-03-02T08:03:30;3.55;;;1.10;;
18929;SDS011;43305;52.186;5.598;2024-03-02T08:06:02;3.10;;;0.77;;
18929;SDS011;43305;52.186;5.598;2024-03-02T08:08:32;3.30;;;0.73;;
18929;SDS011;43305;52.186;5.598;2024-03-02T08:10:59;2.85;;;0.88;;
18929;SDS011;43305;52.186;5.598;2024-03-02T08:13:26;2.70;;;0.65;;
18929;SDS011;43305;52.186;5.598;2024-03-02T08:15:53;2.15;;;0.60;;
18929;SDS011;43305;52.186;5.598;2024-03-02T08:18:21;1.75;;;0.52;;
18929;SDS011;43305;52.186;5.598;2024-03-02T08:20:48;2.33;;;0.55;;
18929;SDS011;43305;52.186;5.598;2024-03-02T08:23:15;2.58;;;0.73;;
18929;SDS011;43305;52.186;5.598;2024-03-02T08:25:42;3.83;;;0.68;;
18929;SDS011;43305;52.186;5.598;2024-03-02T08:28:10;2.58;;;0.63;;
18929;SDS011;43305;52.186;5.598;2024-03-02T08:30:37;3.20;;;0.70;;
18929;SDS011;43305;52.186;5.598;2024-03-02T08:33:04;2.75;;;0.47;;
18929;SDS011;43305;52.186;5.598;2024-03-02T08:35:33;3.05;;;0.52;;
18929;SDS011;43305;52.186;5.598;2024-03-02T08:38:01;2.05;;;0.50;;
18929;SDS011;43305;52.186;5.598;2024-03-02T08:40:31;1.42;;;0.55;;
18929;SDS011;43305;52.186;5.598;2024-03-02T08:43:00;2.15;;;0.60;;
18929;SDS011;43305;52.186;5.598;2024-03-02T08:45:35;4.25;;;0.70;;
18929;SDS011;43305;52.186;5.598;2024-03-02T08:48:05;3.80;;;0.80;;
18929;SDS011;43305;52.186;5.598;2024-03-02T08:50:33;2.25;;;0.57;;
18929;SDS011;43305;52.186;5.598;2024-03-02T08:53:00;3.80;;;1.00;;
18929;SDS011;43305;52.186;5.598;2024-03-02T08:55:27;2.72;;;0.70;;
18929;SDS011;43305;52.186;5.598;2024-03-02T08:58:03;2.45;;;0.60;;
18929;SDS011;43305;52.186;5.598;2024-03-02T09:00:30;4.40;;;0.70;;
18929;SDS011;43305;52.186;5.598;2024-03-02T09:03:02;3.28;;;0.70;;
18929;SDS011;43305;52.186;5.598;2024-03-02T09:05:30;4.63;;;0.75;;
18929;SDS011;43305;52.186;5.598;2024-03-02T09:07:58;4.00;;;0.68;;
18929;SDS011;43305;52.186;5.598;2024-03-02T09:10:28;4.03;;;0.60;;
18929;SDS011;43305;52.186;5.598;2024-03-02T09:13:02;3.72;;;0.73;;
18929;SDS011;43305;52.186;5.598;2024-03-02T09:15:35;2.75;;;0.65;;
18929;SDS011;43305;52.186;5.598;2024-03-02T09:18:04;3.50;;;0.70;;
18929;SDS011;43305;52.186;5.598;2024-03-02T09:20:31;2.28;;;0.60;;
18929;SDS011;43305;52.186;5.598;2024-03-02T09:23:03;2.20;;;0.60;;
18929;SDS011;43305;52.186;5.598;2024-03-02T09:25:30;4.03;;;0.50;;
18929;SDS011;43305;52.186;5.598;2024-03-02T09:27:57;3.17;;;0.73;;
18929;SDS011;43305;52.186;5.598;2024-03-02T09:30:24;3.08;;;0.57;;
18929;SDS011;43305;52.186;5.598;2024-03-02T09:32:51;4.07;;;0.70;;
18929;SDS011;43305;52.186;5.598;2024-03-02T09:35:19;4.15;;;0.90;;
18929;SDS011;43305;52.186;5.598;2024-03-02T09:37:46;2.50;;;0.50;;
18929;SDS011;43305;52.186;5.598;2024-03-02T09:40:14;4.18;;;0.70;;
18929;SDS011;43305;52.186;5.598;2024-03-02T09:42:41;7.32;;;1.05;;
18929;SDS011;43305;52.186;5.598;2024-03-02T09:45:09;2.60;;;0.70;;
18929;SDS011;43305;52.186;5.598;2024-03-02T09:47:36;4.75;;;0.80;;
18929;SDS011;43305;52.186;5.598;2024-03-02T09:50:03;3.15;;;0.70;;
18929;SDS011;43305;52.186;5.598;2024-03-02T09:52:30;5.28;;;0.88;;
18929;SDS011;43305;52.186;5.598;2024-03-02T09:55:02;5.57;;;0.70;;
18929;SDS011;43305;52.186;5.598;2024-03-02T09:57:31;5.32;;;0.70;;
18929;SDS011;43305;52.186;5.598;2024-03-02T10:00:01;5.65;;;0.65;;
18929;SDS011;43305;52.186;5.598;2024-03-02T10:02:35;5.22;;;0.95;;
18929;SDS011;43305;52.186;5.598;2024-03-02T10:05:02;4.10;;;0.90;;
18929;SDS011;43305;52.186;5.598;2024-03-02T10:07:32;2.13;;;0.70;;
18929;SDS011;43305;52.186;5.598;2024-03-02T10:10:12;3.90;;;0.98;;
18929;SDS011;43305;52.186;5.598;2024-03-02T10:12:41;3.50;;;0.70;;
18929;SDS011;43305;52.186;5.598;2024-03-02T10:15:08;3.47;;;0.80;;
18929;SDS011;43305;52.186;5.598;2024-03-02T10:17:35;3.78;;;0.80;;
18929;SDS011;43305;52.186;5.598;2024-03-02T10:22:50;4.30;;;0.77;;
18929;SDS011;43305;52.186;5.598;2024-03-02T10:25:28;1.23;;;0.40;;
18929;SDS011;43305;52.186;5.598;2024-03-02T10:28:02;2.63;;;0.70;;
18929;SDS011;43305;52.186;5.598;2024-03-02T10:30:31;3.22;;;0.90;;
18929;SDS011;43305;52.186;5.598;2024-03-02T10:32:58;4.47;;;0.80;;
18929;SDS011;43305;52.186;5.598;2024-03-02T10:35:27;2.33;;;0.52;;
18929;SDS011;43305;52.186;5.598;2024-03-02T10:37:57;4.75;;;0.63;;
18929;SDS011;43305;52.186;5.598;2024-03-02T10:40:28;4.10;;;0.90;;
18929;SDS011;43305;52.186;5.598;2024-03-02T10:43:06;3.95;;;0.80;;
18929;SDS011;43305;52.186;5.598;2024-03-02T10:45:33;3.45;;;0.85;;
18929;SDS011;43305;52.186;5.598;2024-03-02T10:48:01;4.65;;;0.90;;
18929;SDS011;43305;52.186;5.598;2024-03-02T10:50:30;4.25;;;0.90;;
18929;SDS011;43305;52.186;5.598;2024-03-02T10:52:59;4.32;;;0.73;;
18929;SDS011;43305;52.186;5.598;2024-03-02T10:55:26;2.63;;;0.50;;
18929;SDS011;43305;52.186;5.598;2024-03-02T10:57:54;4.57;;;0.90;;
18929;SDS011;43305;52.186;5.598;2024-03-02T11:00:23;7.07;;;0.70;;
18929;SDS011;43305;52.186;5.598;2024-03-02T11:02:55;2.88;;;0.80;;
18929;SDS011;43305;52.186;5.598;2024-03-02T11:05:27;5.07;;;0.75;;
18929;SDS011;43305;52.186;5.598;2024-03-02T11:08:02;4.32;;;1.23;;
18929;SDS011;43305;52.186;5.598;2024-03-02T11:10:34;2.33;;;0.60;;
18929;SDS011;43305;52.186;5.598;2024-03-02T11:13:05;3.38;;;0.80;;
18929;SDS011;43305;52.186;5.598;2024-03-02T11:15:36;3.35;;;0.60;;
18929;SDS011;43305;52.186;5.598;2024-03-02T11:18:04;4.88;;;0.60;;
18929;SDS011;43305;52.186;5.598;2024-03-02T11:20:34;2.95;;;0.77;;
18929;SDS011;43305;52.186;5.598;2024-03-02T11:23:04;3.30;;;0.75;;
18929;SDS011;43305;52.186;5.598;2024-03-02T11:25:34;2.85;;;0.55;;
18929;SDS011;43305;52.186;5.598;2024-03-02T11:28:04;4.88;;;0.88;;
18929;SDS011;43305;52.186;5.598;2024-03-02T11:30:52;3.33;;;0.65;;
18929;SDS011;43305;52.186;5.598;2024-03-02T11:33:23;4.95;;;0.68;;
18929;SDS011;43305;52.186;5.598;2024-03-02T11:35:52;4.93;;;1.00;;
18929;SDS011;43305;52.186;5.598;2024-03-02T11:38:19;4.75;;;0.70;;
18929;SDS011;43305;52.186;5.598;2024-03-02T11:40:46;3.50;;;0.70;;
18929;SDS011;43305;52.186;5.598;2024-03-02T11:43:13;2.17;;;0.43;;
18929;SDS011;43305;52.186;5.598;2024-03-02T11:45:41;2.90;;;0.68;;
18929;SDS011;43305;52.186;5.598;2024-03-02T11:48:11;3.63;;;0.60;;
18929;SDS011;43305;52.186;5.598;2024-03-02T11:50:40;3.88;;;0.70;;
18929;SDS011;43305;52.186;5.598;2024-03-02T11:53:09;2.60;;;0.70;;
18929;SDS011;43305;52.186;5.598;2024-03-02T11:55:38;4.05;;;0.80;;
18929;SDS011;43305;52.186;5.598;2024-03-02T11:58:05;3.58;;;0.68;;
18929;SDS011;43305;52.186;5.598;2024-03-02T12:00:32;2.53;;;0.95;;
18929;SDS011;43305;52.186;5.598;2024-03-02T12:03:00;3.28;;;0.70;;
18929;SDS011;43305;52.186;5.598;2024-03-02T12:05:33;3.63;;;1.00;;
18929;SDS011;43305;52.186;5.598;2024-03-02T12:08:01;2.67;;;0.50;;
18929;SDS011;43305;52.186;5.598;2024-03-02T12:10:33;4.07;;;0.90;;
18929;SDS011;43305;52.186;5.598;2024-03-02T12:13:01;3.85;;;0.47;;
18929;SDS011;43305;52.186;5.598;2024-03-02T12:15:32;2.88;;;0.55;;
18929;SDS011;43305;52.186;5.598;2024-03-02T12:18:03;2.28;;;0.43;;
18929;SDS011;43305;52.186;5.598;2024-03-02T12:20:32;4.95;;;0.82;;
18929;SDS011;43305;52.186;5.598;2024-03-02T12:23:00;3.15;;;0.50;;
18929;SDS011;43305;52.186;5.598;2024-03-02T12:25:28;2.42;;;0.60;;
18929;SDS011;43305;52.186;5.598;2024-03-02T12:28:00;3.85;;;0.50;;
18929;SDS011;43305;52.186;5.598;2024-03-02T12:30:29;2.78;;;0.57;;
18929;SDS011;43305;52.186;5.598;2024-03-02T12:32:57;3.33;;;0.63;;
18929;SDS011;43305;52.186;5.598;2024-03-02T12:35:27;1.83;;;0.50;;
18929;SDS011;43305;52.186;5.598;2024-03-02T12:37:56;1.60;;;0.40;;
18929;SDS011;43305;52.186;5.598;2024-03-02T12:40:25;2.88;;;0.60;;
18929;SDS011;43305;52.186;5.598;2024-03-02T12:42:52;5.72;;;0.80;;
18929;SDS011;43305;52.186;5.598;2024-03-02T12:45:19;6.60;;;0.85;;
18929;SDS011;43305;52.186;5.598;2024-03-02T12:47:48;2.70;;;0.50;;
18929;SDS011;43305;52.186;5.598;2024-03-02T12:50:15;1.90;;;0.40;;
18929;SDS011;43305;52.186;5.598;2024-03-02T12:52:42;3.60;;;0.70;;
18929;SDS011;43305;52.186;5.598;2024-03-02T12:55:11;2.50;;;0.77;;
18929;SDS011;43305;52.186;5.598;2024-03-02T12:57:37;2.88;;;0.70;;
18929;SDS011;43305;52.186;5.598;2024-03-02T13:00:06;2.78;;;0.80;;
18929;SDS011;43305;52.186;5.598;2024-03-02T13:02:34;2.65;;;0.70;;
18929;SDS011;43305;52.186;5.598;2024-03-02T13:05:02;1.90;;;0.60;;
18929;SDS011;43305;52.186;5.598;2024-03-02T13:07:35;1.85;;;0.60;;
18929;SDS011;43305;52.186;5.598;2024-03-02T13:10:02;3.03;;;0.80;;
18929;SDS011;43305;52.186;5.598;2024-03-02T13:12:34;3.45;;;0.60;;
18929;SDS011;43305;52.186;5.598;2024-03-02T13:15:02;6.55;;;0.85;;
18929;SDS011;43305;52.186;5.598;2024-03-02T13:17:30;3.28;;;0.60;;
18929;SDS011;43305;52.186;5.598;2024-03-02T13:19:59;3.17;;;0.70;;
18929;SDS011;43305;52.186;5.598;2024-03-02T13:22:33;3.13;;;1.00;;
18929;SDS011;43305;52.186;5.598;2024-03-02T13:25:00;3.53;;;0.80;;
18929;SDS011;43305;52.186;5.598;2024-03-02T13:27:31;3.30;;;0.82;;
18929;SDS011;43305;52.186;5.598;2024-03-02T13:30:03;4.15;;;0.98;;
18929;SDS011;43305;52.186;5.598;2024-03-02T13:32:30;2.17;;;0.70;;
18929;SDS011;43305;52.186;5.598;2024-03-02T13:34:57;1.88;;;0.60;;
18929;SDS011;43305;52.186;5.598;2024-03-02T13:37:28;2.80;;;0.70;;
18929;SDS011;43305;52.186;5.598;2024-03-02T13:39:58;1.35;;;0.52;;
18929;SDS011;43305;52.186;5.598;2024-03-02T13:42:29;2.88;;;0.60;;
18929;SDS011;43305;52.186;5.598;2024-03-02T13:44:57;2.95;;;0.90;;
18929;SDS011;43305;52.186;5.598;2024-03-02T13:47:28;3.55;;;0.70;;
18929;SDS011;43305;52.186;5.598;2024-03-02T13:49:57;2.30;;;0.88;;
18929;SDS011;43305;52.186;5.598;2024-03-02T13:52:27;3.38;;;0.95;;
18929;SDS011;43305;52.186;5.598;2024-03-02T13:54:56;3.78;;;0.98;;
18929;SDS011;43305;52.186;5.598;2024-03-02T13:57:23;2.50;;;0.70;;
18929;SDS011;43305;52.186;5.598;2024-03-02T13:59:50;3.58;;;0.80;;
18929;SDS011;43305;52.186;5.598;2024-03-02T14:02:18;2.05;;;0.75;;
18929;SDS011;43305;52.186;5.598;2024-03-02T14:04:46;3.08;;;0.95;;
18929;SDS011;43305;52.186;5.598;2024-03-02T14:07:15;2.80;;;0.75;;
18929;SDS011;43305;52.186;5.598;2024-03-02T14:09:42;5.32;;;1.02;;
18929;SDS011;43305;52.186;5.598;2024-03-02T14:12:10;5.90;;;1.38;;
18929;SDS011;43305;52.186;5.598;2024-03-02T14:14:38;4.30;;;0.95;;
18929;SDS011;43305;52.186;5.598;2024-03-02T14:17:05;2.90;;;0.88;;
18929;SDS011;43305;52.186;5.598;2024-03-02T14:19:39;3.85;;;1.00;;
18929;SDS011;43305;52.186;5.598;2024-03-02T14:22:08;4.50;;;1.17;;
18929;SDS011;43305;52.186;5.598;2024-03-02T14:24:34;2.83;;;0.95;;
18929;SDS011;43305;52.186;5.598;2024-03-02T14:27:01;2.58;;;1.00;;
18929;SDS011;43305;52.186;5.598;2024-03-02T14:29:30;2.55;;;1.00;;
18929;SDS011;43305;52.186;5.598;2024-03-02T14:31:58;3.80;;;1.00;;
18929;SDS011;43305;52.186;5.598;2024-03-02T14:34:28;2.92;;;1.13;;
18929;SDS011;43305;52.186;5.598;2024-03-02T14:36:58;3.42;;;0.90;;
18929;SDS011;43305;52.186;5.598;2024-03-02T14:39:31;2.65;;;0.90;;
18929;SDS011;43305;52.186;5.598;2024-03-02T14:42:00;3.55;;;1.00;;
18929;SDS011;43305;52.186;5.598;2024-03-02T14:44:27;4.32;;;1.23;;
18929;SDS011;43305;52.186;5.598;2024-03-02T14:46:55;3.70;;;1.00;;
18929;SDS011;43305;52.186;5.598;2024-03-02T14:49:23;4.60;;;0.93;;
18929;SDS011;43305;52.186;5.598;2024-03-02T14:51:50;4.25;;;0.88;;
18929;SDS011;43305;52.186;5.598;2024-03-02T14:54:17;2.63;;;0.90;;
18929;SDS011;43305;52.186;5.598;2024-03-02T14:56:45;2.53;;;0.80;;
18929;SDS011;43305;52.186;5.598;2024-03-02T14:59:12;3.60;;;0.93;;